createdAt,value
2022-10-01T00:00:53.410Z,85.95
2022-10-01T00:03:21.844Z,85.71
2022-10-01T00:05:58.981Z,85.37
2022-10-01T00:08:26.411Z,85.34
2022-10-01T00:10:53.266Z,85.94
2022-10-01T00:13:20.330Z,85.66
2022-10-01T00:15:47.313Z,85.39
2022-10-01T00:18:13.705Z,85.70
2022-10-01T00:20:44.501Z,85.88
2022-10-01T00:23:12.627Z,85.56
2022-10-01T00:25:40.098Z,85.45
2022-10-01T00:28:07.008Z,85.55
2022-10-01T00:30:37.209Z,85.65
2022-10-01T00:33:06.057Z,86.13
2022-10-01T00:35:32.429Z,86.01
2022-10-01T00:37:59.032Z,86.37
2022-10-01T00:40:25.556Z,86.56
2022-10-01T00:42:51.956Z,86.08
2022-10-01T00:45:18.433Z,86.59
2022-10-01T00:47:51.238Z,86.33
2022-10-01T00:50:23.829Z,86.75
2022-10-01T00:52:56.843Z,86.81
2022-10-01T00:55:30.934Z,86.89
2022-10-01T00:57:58.101Z,86.66
2022-10-01T01:00:25.110Z,86.26
2022-10-01T01:02:51.589Z,86.55
2022-10-01T01:05:18.866Z,86.74
2022-10-01T01:07:48.412Z,86.26
2022-10-01T01:10:17.243Z,86.75
2022-10-01T01:12:49.579Z,86.93
2022-10-01T01:15:28.234Z,86.97
2022-10-01T01:18:10.101Z,86.81
2022-10-01T01:20:45.296Z,87.30
2022-10-01T01:23:14.731Z,86.83
2022-10-01T01:25:48.014Z,86.82
2022-10-01T01:28:34.724Z,86.73
2022-10-01T01:31:07.885Z,86.66
2022-10-01T01:33:38.142Z,87.04
2022-10-01T01:36:10.696Z,86.93
2022-10-01T01:38:42.861Z,86.77
2022-10-01T01:41:11.512Z,86.38
2022-10-01T01:43:42.776Z,86.96
2022-10-01T01:46:11.526Z,86.79
2022-10-01T01:48:41.103Z,86.81
2022-10-01T01:51:31.440Z,87.16
2022-10-01T01:53:59.170Z,87.60
2022-10-01T01:56:26.062Z,87.25
2022-10-01T01:58:53.908Z,87.81
2022-10-01T02:01:43.506Z,87.52
2022-10-01T02:04:23.325Z,88.09
2022-10-01T02:07:08.426Z,87.56
2022-10-01T02:10:04.350Z,88.15
2022-10-01T02:12:55.587Z,88.29
2022-10-01T02:15:40.559Z,88.34
2022-10-01T02:18:18.932Z,88.17
2022-10-01T02:20:54.440Z,88.13
2022-10-01T02:23:31.172Z,88.49
2022-10-01T02:26:07.131Z,88.82
2022-10-01T02:28:35.748Z,88.75
2022-10-01T02:31:04.158Z,88.76
2022-10-01T02:33:34.379Z,89.10
2022-10-01T02:36:03.912Z,89.29
2022-10-01T02:38:32.777Z,89.02
2022-10-01T02:41:02.926Z,89.16
2022-10-01T02:43:38.318Z,88.62
2022-10-01T02:46:20.123Z,89.03
2022-10-01T02:48:47.970Z,89.02
2022-10-01T02:51:40.937Z,88.55
2022-10-01T02:54:14.458Z,88.28
2022-10-01T02:57:00.242Z,88.49
2022-10-01T02:59:26.626Z,88.57
2022-10-01T03:01:53.251Z,88.51
2022-10-01T03:04:19.954Z,87.80
2022-10-01T03:06:46.366Z,88.26
2022-10-01T03:09:13.688Z,88.17
2022-10-01T03:11:40.121Z,87.74
2022-10-01T03:14:07.302Z,87.66
2022-10-01T03:16:33.688Z,87.36
2022-10-01T03:19:00.108Z,87.58
2022-10-01T03:21:26.810Z,86.94
2022-10-01T03:23:53.178Z,86.89
2022-10-01T03:26:19.533Z,86.86
2022-10-01T03:28:45.947Z,87.08
2022-10-01T03:31:12.358Z,87.34
2022-10-01T03:33:39.465Z,86.96
2022-10-01T03:36:05.975Z,87.79
2022-10-01T03:38:32.358Z,87.29
2022-10-01T03:40:58.699Z,87.65
2022-10-01T03:43:26.982Z,87.58
2022-10-01T03:45:53.359Z,87.83
2022-10-01T03:48:19.776Z,88.21
2022-10-01T03:50:56.036Z,88.40
2022-10-01T03:53:22.700Z,88.82
2022-10-01T03:55:49.175Z,88.32
2022-10-01T03:58:15.985Z,88.20
2022-10-01T04:00:44.102Z,88.62
2022-10-01T04:03:11.116Z,88.60
2022-10-01T04:05:37.492Z,88.58
2022-10-01T04:08:03.932Z,88.67
2022-10-01T04:10:30.410Z,89.40
2022-10-01T04:12:56.830Z,89.24
2022-10-01T04:15:24.960Z,88.80
2022-10-01T04:17:51.510Z,89.63
2022-10-01T04:20:18.297Z,89.49
2022-10-01T04:22:46.021Z,89.84
2022-10-01T04:25:13.154Z,90.02
2022-10-01T04:27:41.304Z,89.95
2022-10-01T04:30:09.252Z,90.26
2022-10-01T04:32:37.229Z,90.09
2022-10-01T04:35:04.568Z,89.88
2022-10-01T04:37:31.117Z,89.83
2022-10-01T04:39:57.532Z,90.16
2022-10-01T04:42:23.888Z,90.38
2022-10-01T04:44:50.831Z,90.39
2022-10-01T04:47:17.357Z,90.79
2022-10-01T04:49:43.696Z,90.82
2022-10-01T04:52:11.108Z,91.09
2022-10-01T04:54:37.500Z,90.48
2022-10-01T04:57:03.913Z,91.16
2022-10-01T04:59:31.752Z,90.63
2022-10-01T05:01:58.159Z,91.21
2022-10-01T05:04:24.710Z,91.05
2022-10-01T05:06:51.122Z,90.84
2022-10-01T05:09:17.493Z,90.52
2022-10-01T05:11:43.861Z,90.47
2022-10-01T05:14:11.680Z,91.05
2022-10-01T05:16:38.101Z,91.45
2022-10-01T05:19:04.808Z,90.69
2022-10-01T05:21:32.105Z,91.14
2022-10-01T05:23:58.740Z,91.07
2022-10-01T05:26:25.224Z,91.65
2022-10-01T05:28:51.761Z,91.88
2022-10-01T05:31:18.659Z,92.06
2022-10-01T05:33:45.131Z,91.32
2022-10-01T05:36:11.541Z,91.31
2022-10-01T05:38:37.902Z,91.64
2022-10-01T05:41:04.831Z,91.98
2022-10-01T05:43:31.411Z,92.29
2022-10-01T05:46:01.962Z,91.97
2022-10-01T05:48:28.791Z,91.46
2022-10-01T05:50:55.152Z,91.81
2022-10-01T05:53:23.475Z,91.15
2022-10-01T05:55:49.821Z,91.81
2022-10-01T05:58:16.965Z,91.17
2022-10-01T06:00:43.811Z,90.73
2022-10-01T06:03:12.943Z,91.72
2022-10-01T06:05:39.481Z,91.39
2022-10-01T06:08:07.259Z,90.86
2022-10-01T06:10:33.645Z,90.68
2022-10-01T06:13:01.760Z,90.70
2022-10-01T06:15:29.341Z,90.91
2022-10-01T06:17:55.812Z,91.13
2022-10-01T06:20:22.207Z,90.90
2022-10-01T06:22:56.313Z,91.02
2022-10-01T06:25:23.131Z,90.28
2022-10-01T06:27:56.271Z,90.57
2022-10-01T06:30:22.718Z,90.25
2022-10-01T06:32:49.063Z,90.43
2022-10-01T06:35:15.516Z,90.33
2022-10-01T06:37:41.877Z,90.69
2022-10-01T06:40:08.954Z,90.24
2022-10-01T06:42:35.313Z,90.41
2022-10-01T06:45:01.716Z,90.33
2022-10-01T06:47:28.052Z,89.81
2022-10-01T06:49:54.431Z,90.24
2022-10-01T06:52:39.486Z,89.77
2022-10-01T06:55:06.417Z,90.32
2022-10-01T06:57:34.059Z,90.40
2022-10-01T07:00:00.567Z,89.93
2022-10-01T07:02:28.929Z,90.06
2022-10-01T07:04:59.371Z,89.97
2022-10-01T07:07:32.862Z,90.08
2022-10-01T07:09:59.299Z,90.23
2022-10-01T07:12:26.359Z,89.82
2022-10-01T07:14:53.306Z,89.88
2022-10-01T07:17:20.598Z,89.57
2022-10-01T07:19:46.933Z,89.51
2022-10-01T07:22:13.373Z,89.23
2022-10-01T07:24:39.770Z,89.35
2022-10-01T07:27:07.484Z,89.64
2022-10-01T07:29:34.526Z,89.38
2022-10-01T07:32:01.480Z,88.93
2022-10-01T07:34:30.885Z,89.51
2022-10-01T07:36:57.258Z,89.41
2022-10-01T07:39:23.765Z,89.58
2022-10-01T07:41:53.065Z,89.70
2022-10-01T07:44:19.870Z,89.75
2022-10-01T07:46:47.145Z,89.61
2022-10-01T07:49:13.766Z,89.64
2022-10-01T07:51:40.566Z,89.69
2022-10-01T07:54:07.115Z,89.84
2022-10-01T07:56:33.477Z,90.52
2022-10-01T07:58:59.851Z,90.41
2022-10-01T08:01:26.342Z,90.12
2022-10-01T08:03:53.020Z,90.14
2022-10-01T08:06:25.226Z,89.65
2022-10-01T08:08:52.716Z,90.31
2022-10-01T08:11:19.062Z,90.29
2022-10-01T08:13:45.761Z,90.29
2022-10-01T08:16:12.545Z,90.65
2022-10-01T08:18:40.613Z,90.62
2022-10-01T08:21:07.420Z,90.32
2022-10-01T08:23:34.503Z,90.46
2022-10-01T08:26:07.352Z,90.52
2022-10-01T08:28:35.324Z,90.57
2022-10-01T08:31:09.728Z,90.72
2022-10-01T08:33:38.003Z,90.85
2022-10-01T08:36:08.261Z,90.48
2022-10-01T08:38:40.067Z,90.51
2022-10-01T08:41:28.962Z,90.72
2022-10-01T08:43:55.449Z,90.99
2022-10-01T08:46:26.001Z,91.00
2022-10-01T08:49:17.748Z,90.61
2022-10-01T08:51:54.035Z,90.84
2022-10-01T08:54:32.444Z,90.91
2022-10-01T08:57:02.055Z,90.35
2022-10-01T08:59:43.035Z,91.02
2022-10-01T09:02:23.825Z,91.09
2022-10-01T09:05:01.276Z,90.95
2022-10-01T09:07:53.896Z,91.61
2022-10-01T09:10:46.826Z,91.45
2022-10-01T09:13:34.569Z,91.85
2022-10-01T09:16:24.021Z,91.85
2022-10-01T09:19:02.479Z,91.52
2022-10-01T09:22:10.776Z,92.10
2022-10-01T09:24:44.494Z,91.52
2022-10-01T09:27:25.988Z,91.58
2022-10-01T09:29:57.525Z,91.51
2022-10-01T09:32:30.989Z,91.37
2022-10-01T09:35:04.551Z,91.41
2022-10-01T09:37:44.857Z,91.49
2022-10-01T09:40:19.804Z,91.42
2022-10-01T09:42:47.959Z,91.23
2022-10-01T09:45:15.750Z,90.56
2022-10-01T09:47:46.385Z,90.37
2022-10-01T09:50:21.909Z,90.31
2022-10-01T09:52:51.191Z,90.24
2022-10-01T09:55:39.224Z,90.32
2022-10-01T09:58:13.335Z,90.12
2022-10-01T10:00:41.786Z,89.93
2022-10-01T10:03:08.385Z,90.14
2022-10-01T10:05:49.145Z,89.76
2022-10-01T10:08:35.492Z,89.31
2022-10-01T10:11:06.502Z,89.78
2022-10-01T10:13:39.056Z,90.42
2022-10-01T10:16:16.643Z,90.15
2022-10-01T10:18:49.055Z,90.04
2022-10-01T10:21:19.385Z,90.45
2022-10-01T10:23:49.391Z,90.80
2022-10-01T10:26:22.379Z,90.45
2022-10-01T10:28:48.947Z,90.10
2022-10-01T10:31:20.086Z,90.38
2022-10-01T10:33:49.476Z,90.45
2022-10-01T10:36:16.951Z,90.62
2022-10-01T10:38:49.550Z,90.36
2022-10-01T10:41:19.726Z,90.39
2022-10-01T10:43:49.089Z,90.75
2022-10-01T10:46:26.975Z,90.88
2022-10-01T10:48:59.916Z,90.87
2022-10-01T10:51:28.170Z,91.01
2022-10-01T10:53:54.592Z,91.22
2022-10-01T10:56:23.930Z,91.33
2022-10-01T10:58:51.948Z,91.55
2022-10-01T11:01:25.656Z,91.63
2022-10-01T11:03:58.216Z,91.78
2022-10-01T11:06:26.426Z,92.03
2022-10-01T11:09:07.913Z,92.30
2022-10-01T11:11:36.953Z,91.79
2022-10-01T11:14:23.847Z,92.02
2022-10-01T11:17:16.769Z,92.22
2022-10-01T11:20:20.976Z,92.02
2022-10-01T11:23:18.923Z,92.24
2022-10-01T11:26:01.041Z,92.56
2022-10-01T11:28:53.368Z,92.55
2022-10-01T11:31:40.283Z,92.17
2022-10-01T11:34:38.905Z,92.24
2022-10-01T11:37:33.636Z,92.63
2022-10-01T11:40:11.455Z,92.62
2022-10-01T11:42:38.009Z,92.28
2022-10-01T11:45:17.785Z,92.72
2022-10-01T11:47:50.114Z,92.64
2022-10-01T11:50:20.588Z,92.67
2022-10-01T11:53:18.470Z,92.61
2022-10-01T11:56:14.602Z,92.82
2022-10-01T11:59:03.124Z,92.69
2022-10-01T12:01:47.625Z,92.51
2022-10-01T12:04:33.253Z,92.57
2022-10-01T12:07:11.435Z,92.44
2022-10-01T12:09:53.425Z,92.58
2022-10-01T12:12:24.933Z,92.49
2022-10-01T12:15:06.773Z,92.22
2022-10-01T12:17:49.595Z,92.22
2022-10-01T12:20:41.238Z,92.28
2022-10-01T12:23:14.841Z,92.44
2022-10-01T12:26:03.096Z,92.50
2022-10-01T12:28:40.889Z,92.67
2022-10-01T12:31:21.697Z,92.87
2022-10-01T12:34:25.974Z,92.82
2022-10-01T12:37:10.159Z,92.81
2022-10-01T12:39:54.385Z,92.82
2022-10-01T12:42:49.452Z,93.04
2022-10-01T12:45:33.768Z,93.22
2022-10-01T12:48:15.671Z,93.47
2022-10-01T12:50:57.110Z,93.61
2022-10-01T12:53:43.639Z,93.43
2022-10-01T12:56:21.540Z,93.62
2022-10-01T12:59:06.346Z,93.77
2022-10-01T13:01:51.190Z,93.25
2022-10-01T13:04:33.471Z,93.62
2022-10-01T13:07:52.493Z,93.53
2022-10-01T13:10:32.159Z,93.36
2022-10-01T13:13:16.925Z,93.26
2022-10-01T13:15:49.499Z,93.29
2022-10-01T13:18:42.857Z,93.46
2022-10-01T13:21:24.917Z,93.30
2022-10-01T13:24:03.053Z,93.41
2022-10-01T13:26:45.721Z,93.26
2022-10-01T13:29:36.036Z,93.28
2022-10-01T13:32:25.673Z,92.81
2022-10-01T13:34:52.763Z,92.81
2022-10-01T13:37:33.328Z,92.58
2022-10-01T13:40:00.598Z,92.57
2022-10-01T13:42:30.149Z,92.70
2022-10-01T13:45:04.623Z,92.37
2022-10-01T13:47:33.846Z,92.39
2022-10-01T13:50:06.583Z,92.28
2022-10-01T13:52:34.069Z,91.60
2022-10-01T13:55:01.860Z,91.16
2022-10-01T13:57:37.086Z,89.10
2022-10-01T14:00:12.298Z,88.24
2022-10-01T14:02:42.183Z,87.00
2022-10-01T14:05:17.424Z,86.52
2022-10-01T14:07:47.635Z,85.25
2022-10-01T14:10:15.563Z,84.23
2022-10-01T14:13:04.499Z,83.78
2022-10-01T14:16:00.559Z,84.66
2022-10-01T14:18:32.972Z,84.58
2022-10-01T14:21:06.542Z,85.15
2022-10-01T14:23:48.226Z,84.99
2022-10-01T14:26:31.566Z,84.80
2022-10-01T14:29:23.013Z,83.70
2022-10-01T14:31:55.418Z,83.25
2022-10-01T14:34:38.929Z,82.80
2022-10-01T14:37:08.329Z,82.62
2022-10-01T14:39:34.754Z,82.54
2022-10-01T14:42:16.522Z,82.27
2022-10-01T14:44:46.952Z,82.30
2022-10-01T14:47:24.989Z,82.11
2022-10-01T14:49:51.870Z,80.91
2022-10-01T14:52:23.896Z,81.20
2022-10-01T14:54:56.480Z,81.59
2022-10-01T14:57:28.868Z,80.99
2022-10-01T14:59:57.507Z,81.01
2022-10-01T15:02:25.744Z,81.12
2022-10-01T15:04:56.438Z,81.35
2022-10-01T15:07:25.309Z,80.98
2022-10-01T15:09:51.725Z,80.82
2022-10-01T15:12:22.535Z,80.56
2022-10-01T15:14:53.826Z,80.30
2022-10-01T15:17:22.015Z,80.51
2022-10-01T15:19:52.087Z,80.00
2022-10-01T15:22:26.219Z,80.28
2022-10-01T15:24:57.730Z,80.60
2022-10-01T15:27:25.873Z,79.84
2022-10-01T15:29:56.451Z,80.10
2022-10-01T15:32:25.430Z,80.43
2022-10-01T15:34:55.109Z,79.74
2022-10-01T15:37:34.750Z,80.30
2022-10-01T15:40:03.804Z,80.23
2022-10-01T15:42:32.749Z,80.48
2022-10-01T15:45:08.274Z,80.48
2022-10-01T15:47:37.287Z,81.00
2022-10-01T15:50:16.029Z,80.94
2022-10-01T15:52:52.315Z,80.54
2022-10-01T15:55:30.498Z,81.67
2022-10-01T15:58:04.092Z,81.49
2022-10-01T16:00:33.862Z,81.64
2022-10-01T16:03:00.504Z,81.59
2022-10-01T16:05:35.402Z,82.30
2022-10-01T16:08:02.217Z,82.28
2022-10-01T16:10:37.725Z,82.25
2022-10-01T16:13:27.076Z,82.28
2022-10-01T16:16:29.719Z,81.84
2022-10-01T16:19:23.394Z,82.55
2022-10-01T16:22:19.630Z,82.36
2022-10-01T16:24:57.604Z,82.86
2022-10-01T16:27:26.572Z,82.38
2022-10-01T16:30:08.761Z,82.87
2022-10-01T16:32:35.729Z,83.01
2022-10-01T16:35:23.644Z,82.61
2022-10-01T16:37:51.890Z,83.25
2022-10-01T16:40:20.829Z,83.23
2022-10-01T16:42:50.466Z,83.10
2022-10-01T16:45:19.896Z,83.43
2022-10-01T16:47:46.618Z,84.01
2022-10-01T16:50:17.392Z,83.61
2022-10-01T16:52:44.398Z,83.53
2022-10-01T16:55:18.520Z,83.80
2022-10-01T16:57:44.879Z,84.07
2022-10-01T17:00:20.306Z,84.22
2022-10-01T17:02:46.954Z,84.53
2022-10-01T17:05:28.219Z,84.57
2022-10-01T17:07:59.242Z,84.96
2022-10-01T17:10:25.660Z,84.68
2022-10-01T17:12:52.081Z,84.80
2022-10-01T17:15:23.106Z,84.50
2022-10-01T17:17:49.469Z,84.55
2022-10-01T17:20:16.060Z,84.47
2022-10-01T17:22:45.768Z,84.49
2022-10-01T17:25:18.310Z,84.56
2022-10-01T17:27:45.187Z,84.84
2022-10-01T17:30:12.010Z,84.37
2022-10-01T17:32:40.036Z,84.36
2022-10-01T17:35:07.496Z,84.39
2022-10-01T17:37:34.459Z,83.89
2022-10-01T17:40:01.050Z,84.05
2022-10-01T17:42:27.510Z,84.03
2022-10-01T17:44:54.792Z,84.71
2022-10-01T17:47:21.171Z,84.47
2022-10-01T17:49:47.560Z,84.22
2022-10-01T17:52:13.968Z,84.07
2022-10-01T17:54:40.429Z,84.32
2022-10-01T17:57:11.713Z,83.93
2022-10-01T17:59:38.515Z,84.26
2022-10-01T18:02:23.475Z,83.72
2022-10-01T18:04:53.481Z,83.85
2022-10-01T18:07:20.347Z,84.55
2022-10-01T18:09:46.827Z,84.66
2022-10-01T18:12:14.009Z,85.03
2022-10-01T18:14:40.695Z,84.99
2022-10-01T18:17:07.102Z,85.00
2022-10-01T18:22:19.975Z,85.96
2022-10-01T18:24:46.403Z,86.06
2022-10-01T18:27:13.653Z,85.74
2022-10-01T18:29:40.105Z,85.82
2022-10-01T18:32:47.185Z,86.10
2022-10-01T18:35:43.638Z,86.72
2022-10-01T18:38:24.269Z,86.45
2022-10-01T18:41:04.464Z,86.49
2022-10-01T18:43:36.343Z,86.60
2022-10-01T18:46:08.061Z,86.61
2022-10-01T18:48:53.352Z,86.89
2022-10-01T18:51:40.107Z,86.94
2022-10-01T18:54:37.526Z,87.56
2022-10-01T18:57:21.036Z,87.60
2022-10-01T19:00:01.403Z,88.03
2022-10-01T19:02:59.173Z,88.96
2022-10-01T19:06:08.400Z,89.34
2022-10-01T19:09:04.481Z,89.63
2022-10-01T19:11:41.276Z,89.90
2022-10-01T19:14:39.449Z,90.24
2022-10-01T19:17:27.627Z,90.41
2022-10-01T19:20:09.909Z,91.28
2022-10-01T19:23:14.042Z,91.79
2022-10-01T19:25:47.312Z,91.81
2022-10-01T19:28:25.544Z,92.12
2022-10-01T19:31:13.059Z,92.95
2022-10-01T19:33:49.013Z,93.32
2022-10-01T19:36:25.119Z,93.23
2022-10-01T19:38:54.904Z,93.88
2022-10-01T19:41:31.769Z,93.66
2022-10-01T19:44:11.612Z,94.32
2022-10-01T19:46:45.780Z,94.86
2022-10-01T19:49:19.243Z,95.50
2022-10-01T19:51:51.889Z,95.29
2022-10-01T19:54:22.198Z,95.82
2022-10-01T19:56:57.909Z,96.01
2022-10-01T19:59:24.322Z,96.58
2022-10-01T20:01:54.550Z,96.53
2022-10-01T20:04:37.988Z,96.12
2022-10-01T20:07:29.659Z,96.38
2022-10-01T20:10:22.383Z,95.49
2022-10-01T20:12:58.758Z,94.67
2022-10-01T20:16:02.909Z,94.68
2022-10-01T20:18:32.276Z,94.73
2022-10-01T20:21:17.393Z,94.79
2022-10-01T20:23:57.583Z,94.94
2022-10-01T20:26:47.573Z,94.94
2022-10-01T20:29:16.708Z,94.46
2022-10-01T20:32:01.879Z,94.74
2022-10-01T20:34:28.421Z,94.87
2022-10-01T20:37:07.953Z,94.31
2022-10-01T20:39:41.326Z,94.45
2022-10-01T20:42:16.138Z,94.31
2022-10-01T20:44:43.678Z,94.17
2022-10-01T20:47:26.621Z,94.07
2022-10-01T20:50:29.475Z,94.16
2022-10-01T20:53:14.989Z,93.72
2022-10-01T20:55:47.313Z,94.12
2022-10-01T20:58:24.862Z,93.66
2022-10-01T21:00:58.324Z,93.28
2022-10-01T21:03:34.018Z,92.25
2022-10-01T21:06:10.971Z,92.42
2022-10-01T21:08:40.608Z,91.99
2022-10-01T21:11:17.543Z,92.03
2022-10-01T21:14:00.970Z,91.89
2022-10-01T21:16:46.538Z,91.83
2022-10-01T21:19:26.738Z,91.91
2022-10-01T21:22:01.191Z,92.51
2022-10-01T21:24:46.090Z,92.59
2022-10-01T21:27:48.774Z,93.30
2022-10-01T21:30:18.081Z,93.78
2022-10-01T21:33:13.222Z,93.51
2022-10-01T21:35:45.383Z,93.77
2022-10-01T21:38:30.601Z,94.16
2022-10-01T21:41:23.002Z,93.92
2022-10-01T21:44:15.323Z,94.39
2022-10-01T21:47:03.190Z,94.34
2022-10-01T21:49:53.981Z,94.71
2022-10-01T21:52:32.465Z,94.99
2022-10-01T21:55:12.518Z,95.21
2022-10-01T21:57:57.580Z,94.96
2022-10-01T22:00:28.669Z,95.03
2022-10-01T22:03:19.556Z,95.10
2022-10-01T22:05:58.811Z,95.03
2022-10-01T22:08:47.044Z,95.30
2022-10-01T22:11:17.304Z,95.30
2022-10-01T22:14:04.775Z,95.83
2022-10-01T22:16:39.814Z,95.83
2022-10-01T22:19:21.272Z,96.10
2022-10-01T22:21:55.843Z,96.34
2022-10-01T22:24:28.394Z,96.57
2022-10-01T22:27:12.462Z,97.21
2022-10-01T22:29:44.377Z,96.86
2022-10-01T22:32:13.637Z,97.25
2022-10-01T22:34:54.231Z,98.14
2022-10-01T22:37:27.642Z,98.42
2022-10-01T22:40:13.122Z,98.54
2022-10-01T22:42:46.514Z,99.11
2022-10-01T22:45:15.605Z,99.26
2022-10-01T22:47:55.840Z,99.40
2022-10-01T22:51:00.213Z,99.75
2022-10-01T22:53:45.109Z,99.95
2022-10-01T22:56:19.212Z,99.90
2022-10-01T22:58:59.144Z,100.00
2022-10-01T23:01:42.189Z,99.92
2022-10-01T23:04:28.124Z,99.81
2022-10-01T23:07:18.440Z,100.00
2022-10-01T23:09:49.744Z,100.00
2022-10-01T23:12:18.804Z,100.00
2022-10-01T23:15:20.080Z,100.00
2022-10-01T23:18:09.768Z,100.00
2022-10-01T23:21:06.408Z,100.00
2022-10-01T23:23:33.640Z,100.00
2022-10-01T23:26:37.584Z,100.00
2022-10-01T23:29:39.812Z,100.00
2022-10-01T23:32:43.304Z,100.00
2022-10-01T23:35:18.600Z,100.00
2022-10-01T23:38:08.702Z,100.00
2022-10-01T23:40:41.462Z,100.00
2022-10-01T23:43:41.157Z,100.00
2022-10-01T23:46:18.874Z,100.00
2022-10-01T23:48:55.194Z,100.00
2022-10-01T23:51:26.549Z,100.00
2022-10-01T23:54:02.026Z,100.00
2022-10-01T23:56:49.750Z,100.00
2022-10-01T23:59:19.255Z,100.00
